Time;durP1;ratioP1;P1;durP2;ratioP2;P2;SDS_P1;SDS_P2;PMS_P1;PMS_P2;Temp;Humidity;BMP_temperature;BMP_pressure;BME280_temperature;BME280_humidity;BME280_pressure;Samples;Min_cycle;Max_cycle;Signal;HPM_P1;HPM_P2
2022/02/17 00:01:10;;;;;;;0.50;0.50;;;;;;;11.41;93.31;96104.09;4169724;28;20045;-72
2022/02/17 00:03:11;;;;;;;0.70;0.50;;;;;;;11.43;93.14;96104.47;4169533;28;20578;-72
2022/02/17 00:05:11;;;;;;;0.50;0.50;;;;;;;11.47;92.36;96107.88;4170057;28;20360;-72
2022/02/17 00:07:12;;;;;;;0.40;0.40;;;;;;;11.44;91.89;96104.00;4168593;28;20073;-73
2022/02/17 00:09:12;;;;;;;1.05;0.57;;;;;;;11.50;93.48;96107.00;4169640;28;20516;-72
2022/02/17 00:11:13;;;;;;;0.43;0.43;;;;;;;11.46;93.71;96111.88;4169908;28;20067;-73
2022/02/17 00:13:13;;;;;;;0.40;0.40;;;;;;;11.53;93.24;96128.28;4169615;28;20033;-72
2022/02/17 00:15:14;;;;;;;0.40;0.40;;;;;;;11.49;93.98;96106.22;4169803;28;20486;-73
2022/02/17 00:17:14;;;;;;;0.40;0.40;;;;;;;11.44;93.70;96114.31;4168648;28;20429;-73
2022/02/17 00:19:15;;;;;;;0.40;0.40;;;;;;;11.42;93.78;96087.06;4169898;28;20049;-73
2022/02/17 00:21:15;;;;;;;0.45;0.40;;;;;;;11.40;93.49;96089.50;4169580;28;20051;-73
2022/02/17 00:23:15;;;;;;;0.63;0.50;;;;;;;11.49;92.08;96088.84;4169671;28;20401;-73
2022/02/17 00:25:16;;;;;;;0.40;0.40;;;;;;;11.48;92.43;96074.22;4169995;28;20156;-72
2022/02/17 00:27:17;;;;;;;0.45;0.45;;;;;;;11.53;92.16;96070.13;4168662;28;20052;-72
2022/02/17 00:29:17;;;;;;;0.40;0.40;;;;;;;11.51;91.54;96053.97;4169543;28;20499;-72
2022/02/17 00:31:19;;;;;;;0.40;0.40;;;;;;;11.56;90.92;96022.16;4169517;28;20085;-72
2022/02/17 00:33:19;;;;;;;1.65;0.50;;;;;;;11.68;89.67;96071.25;4169696;28;20060;-72
2022/02/17 00:35:20;;;;;;;0.32;0.32;;;;;;;11.64;90.67;96067.03;4169674;28;20041;-72
2022/02/17 00:37:20;;;;;;;0.40;0.40;;;;;;;11.69;89.66;96063.72;4168695;28;20061;-73
2022/02/17 00:39:21;;;;;;;0.40;0.40;;;;;;;11.66;88.95;96015.50;4169699;28;20072;-72
2022/02/17 00:41:21;;;;;;;2.65;0.40;;;;;;;11.70;88.65;96106.81;4169261;28;20481;-72
2022/02/17 00:43:21;;;;;;;0.40;0.40;;;;;;;11.58;90.86;96047.41;4169507;28;20386;-72
2022/02/17 00:45:22;;;;;;;0.65;0.47;;;;;;;11.64;90.10;96062.25;4169586;28;20111;-72
2022/02/17 00:47:23;;;;;;;0.40;0.40;;;;;;;11.62;90.81;96077.78;4168552;28;20079;-72
2022/02/17 00:49:26;;;;;;;0.38;0.38;;;;;;;11.60;91.40;96071.91;4169541;28;20045;-72
2022/02/17 00:51:26;;;;;;;0.50;0.40;;;;;;;11.54;93.80;96082.75;4169234;28;20505;-72
2022/02/17 00:53:27;;;;;;;0.43;0.43;;;;;;;11.38;95.59;96072.53;4169526;28;20054;-72
2022/02/17 00:55:27;;;;;;;0.50;0.50;;;;;;;11.26;96.88;96076.09;4169238;28;20448;-72
2022/02/17 00:57:27;;;;;;;0.40;0.40;;;;;;;11.23;97.49;96099.88;4168527;28;20123;-72
2022/02/17 00:59:28;;;;;;;0.50;0.50;;;;;;;11.27;96.16;96094.25;4169908;28;20073;-72
2022/02/17 01:01:29;;;;;;;0.90;0.60;;;;;;;11.20;97.62;96078.63;4169327;28;20053;-72
2022/02/17 01:03:29;;;;;;;0.40;0.40;;;;;;;11.23;98.06;96088.03;4169184;28;20056;-72
2022/02/17 01:05:30;;;;;;;0.40;0.40;;;;;;;11.07;97.97;96110.22;4169498;28;20059;-72
2022/02/17 01:07:31;;;;;;;0.45;0.45;;;;;;;11.17;94.69;96078.69;4168428;28;20208;-72
2022/02/17 01:09:31;;;;;;;0.50;0.50;;;;;;;11.25;94.51;96097.47;4170877;28;20413;-72
2022/02/17 01:11:32;;;;;;;1.02;0.50;;;;;;;11.36;92.59;96107.44;4172491;28;20045;-72
2022/02/17 01:13:32;;;;;;;0.40;0.40;;;;;;;11.30;94.07;96081.50;4172687;28;20127;-71
2022/02/17 01:15:33;;;;;;;0.50;0.50;;;;;;;11.41;91.31;96101.34;4171768;28;20041;-72
2022/02/17 01:17:33;;;;;;;0.90;0.50;;;;;;;11.40;91.06;96074.88;4171402;28;20110;-72
2022/02/17 01:19:33;;;;;;;0.90;0.52;;;;;;;11.44;89.80;96079.09;4172811;28;20136;-72
2022/02/17 01:21:34;;;;;;;0.50;0.50;;;;;;;11.42;90.88;96062.16;4172334;28;20402;-72
2022/02/17 01:23:34;;;;;;;0.50;0.50;;;;;;;11.48;90.45;96088.06;4172252;28;20519;-72
2022/02/17 01:25:35;;;;;;;0.98;0.60;;;;;;;11.50;89.91;96055.19;4172405;28;20097;-72
2022/02/17 01:27:35;;;;;;;0.52;0.52;;;;;;;11.50;88.37;96079.31;4171798;28;20139;-72
2022/02/17 01:29:35;;;;;;;0.68;0.60;;;;;;;11.49;88.44;96072.22;4172374;28;20041;-72
2022/02/17 01:31:36;;;;;;;0.50;0.50;;;;;;;11.52;87.06;96077.66;4172010;28;20044;-72
2022/02/17 01:33:36;;;;;;;0.40;0.40;;;;;;;11.56;85.70;96088.63;4172307;28;20136;-72
2022/02/17 01:35:37;;;;;;;1.38;0.50;;;;;;;11.59;84.33;96082.22;4172068;28;20289;-72
2022/02/17 01:37:37;;;;;;;0.40;0.40;;;;;;;11.64;83.25;96083.63;4171281;28;20461;-72
2022/02/17 01:39:37;;;;;;;0.75;0.50;;;;;;;11.67;81.72;96075.25;4172297;28;20049;-72
2022/02/17 01:41:37;;;;;;;0.57;0.57;;;;;;;11.69;81.21;96064.47;4172020;28;20135;-72
2022/02/17 01:43:38;;;;;;;0.50;0.50;;;;;;;11.69;80.97;96060.94;4171580;28;20049;-72
2022/02/17 01:45:39;;;;;;;1.77;0.40;;;;;;;11.71;80.10;96084.19;4172064;28;20053;-72
2022/02/17 01:47:44;;;;;;;0.50;0.50;;;;;;;11.67;79.65;96057.84;4170215;28;20132;-72
2022/02/17 01:49:47;;;;;;;1.55;0.30;;;;;;;11.60;80.75;96055.28;4171658;28;20099;-72
2022/02/17 01:51:47;;;;;;;0.50;0.40;;;;;;;11.51;80.49;96048.44;4170712;28;20133;-72
2022/02/17 01:53:47;;;;;;;0.40;0.40;;;;;;;11.58;80.17;96030.00;4171852;28;20544;-72
2022/02/17 01:55:50;;;;;;;0.63;0.52;;;;;;;11.53;80.45;96039.66;4171834;28;20087;-72
2022/02/17 01:57:50;;;;;;;;;;;;;;;11.49;80.06;96041.75;4171018;28;20052;-72
2022/02/17 01:59:51;;;;;;;0.40;0.40;;;;;;;11.46;80.17;96037.88;4171609;28;19920;-72
2022/02/17 02:01:51;;;;;;;1.42;0.50;;;;;;;11.39;81.77;96049.19;4171726;28;20419;-72
2022/02/17 02:03:52;;;;;;;0.52;0.35;;;;;;;11.34;81.93;96026.81;4171589;28;20140;-72
2022/02/17 02:05:52;;;;;;;0.60;0.50;;;;;;;11.32;82.71;96015.41;4171745;28;20045;-72
2022/02/17 02:07:52;;;;;;;0.40;0.40;;;;;;;11.18;85.02;96000.78;4170919;28;20128;-72
2022/02/17 02:09:54;;;;;;;0.55;0.50;;;;;;;11.05;84.93;96002.00;4171827;28;20060;-72
2022/02/17 02:11:54;;;;;;;0.52;0.52;;;;;;;10.93;85.38;95995.25;4171365;28;20049;-72
2022/02/17 02:13:54;;;;;;;0.40;0.40;;;;;;;10.83;84.90;96012.91;4171167;28;20052;-72
2022/02/17 02:15:55;;;;;;;0.52;0.50;;;;;;;10.78;85.93;96003.16;4171852;28;20040;-72
2022/02/17 02:17:55;;;;;;;0.82;0.65;;;;;;;10.76;85.80;95989.00;4170591;28;20055;-71
2022/02/17 02:19:59;;;;;;;0.50;0.50;;;;;;;10.67;87.28;95972.25;4170301;28;20049;-71
2022/02/17 02:21:59;;;;;;;0.57;0.55;;;;;;;10.63;89.32;95979.91;4171133;28;20308;-72
2022/02/17 02:23:59;;;;;;;1.83;0.90;;;;;;;10.51;90.52;95988.91;4171224;28;20560;-72
2022/02/17 02:26:00;;;;;;;1.73;0.95;;;;;;;10.36;91.75;96005.16;4171196;28;20444;-72
2022/02/17 02:28:00;;;;;;;2.08;0.60;;;;;;;10.30;92.18;96001.34;4170127;28;20041;-71
2022/02/17 02:30:01;;;;;;;2.05;1.00;;;;;;;10.30;92.62;95995.81;4171297;28;20047;-72
2022/02/17 02:32:01;;;;;;;0.82;0.50;;;;;;;10.20;94.95;95994.09;4170722;28;20477;-71
2022/02/17 02:34:01;;;;;;;0.80;0.40;;;;;;;10.18;95.16;95993.75;4171136;28;20033;-72
2022/02/17 02:36:02;;;;;;;1.90;0.60;;;;;;;10.07;96.55;95958.13;4171440;28;20095;-72
2022/02/17 02:38:02;;;;;;;0.43;0.43;;;;;;;9.96;97.01;95947.34;4169037;28;20143;-72
2022/02/17 02:40:03;;;;;;;0.75;0.60;;;;;;;9.86;98.13;95967.75;4170416;28;20090;-72
2022/02/17 02:42:04;;;;;;;0.73;0.60;;;;;;;9.93;97.01;95936.38;4170522;28;20044;-72
2022/02/17 02:44:04;;;;;;;0.60;0.50;;;;;;;9.85;97.32;95922.03;4171309;28;20033;-72
2022/02/17 02:46:07;;;;;;;1.25;0.50;;;;;;;10.01;94.91;95927.50;4170845;28;20435;-72
2022/02/17 02:48:09;;;;;;;1.05;0.50;;;;;;;10.14;93.62;95933.84;4170097;28;20037;-72
2022/02/17 02:50:09;;;;;;;0.93;0.60;;;;;;;10.31;91.33;95915.25;4170704;28;20386;-72
2022/02/17 02:52:10;;;;;;;0.40;0.40;;;;;;;10.42;91.60;95925.97;4171321;28;20039;-72
2022/02/17 02:54:10;;;;;;;0.40;0.40;;;;;;;10.52;90.79;95913.09;4170872;28;20029;-72
2022/02/17 02:56:11;;;;;;;0.30;0.30;;;;;;;10.57;91.24;95931.88;4170669;28;20521;-72
2022/02/17 02:58:13;;;;;;;0.40;0.40;;;;;;;10.65;90.46;95914.63;4170393;28;20493;-72
2022/02/17 03:00:14;;;;;;;2.03;0.50;;;;;;;10.64;90.14;95915.84;4170861;28;20312;-72
2022/02/17 03:02:14;;;;;;;0.30;0.30;;;;;;;10.67;89.05;95939.88;4170775;28;20134;-72
2022/02/17 03:04:14;;;;;;;1.33;0.40;;;;;;;10.80;88.00;95920.53;4170297;28;20115;-72
2022/02/17 03:06:16;;;;;;;0.40;0.40;;;;;;;10.91;86.87;95918.19;4170934;28;20493;-72
2022/02/17 03:08:17;;;;;;;0.50;0.50;;;;;;;11.01;85.35;95915.56;4169752;28;20029;-72
2022/02/17 03:10:17;;;;;;;0.57;0.43;;;;;;;10.96;85.47;95914.13;4170273;28;20116;-72
2022/02/17 03:12:18;;;;;;;0.40;0.40;;;;;;;11.02;85.89;95930.94;4170587;28;20040;-72
2022/02/17 03:14:18;;;;;;;0.40;0.40;;;;;;;11.06;85.17;95932.38;4170575;28;20078;-72
2022/02/17 03:16:18;;;;;;;0.40;0.40;;;;;;;11.06;85.59;95943.44;4170668;28;20381;-72
2022/02/17 03:18:19;;;;;;;1.10;0.50;;;;;;;10.95;90.33;95946.53;4169712;28;20112;-72
2022/02/17 03:20:20;;;;;;;1.23;0.40;;;;;;;10.81;92.31;95933.13;4170748;28;20041;-71
2022/02/17 03:22:20;;;;;;;1.35;0.47;;;;;;;10.64;94.41;95951.03;4170127;28;20040;-71
2022/02/17 03:24:21;;;;;;;0.40;0.40;;;;;;;10.48;93.64;95970.44;4170106;28;20045;-71
2022/02/17 03:26:21;;;;;;;0.40;0.40;;;;;;;10.44;93.65;95978.09;4170399;28;20544;-71
2022/02/17 03:28:21;;;;;;;3.10;0.52;;;;;;;10.35;94.31;95975.97;4169633;28;20365;-71
2022/02/17 03:30:22;;;;;;;3.75;0.50;;;;;;;10.25;94.58;95990.81;4170402;28;20114;-71
2022/02/17 03:32:23;;;;;;;0.82;0.60;;;;;;;10.17;89.45;95998.50;4170191;28;20773;-71
2022/02/17 03:34:24;;;;;;;0.70;0.70;;;;;;;10.24;87.96;95979.00;4170222;28;20086;-71
2022/02/17 03:36:24;;;;;;;1.20;0.65;;;;;;;10.29;85.63;95989.53;4170280;28;20488;-71
2022/02/17 03:38:24;;;;;;;1.05;0.73;;;;;;;10.35;84.56;95998.06;4169345;28;20052;-71
2022/02/17 03:40:25;;;;;;;1.08;0.60;;;;;;;10.36;82.59;95988.56;4170000;28;20132;-71
2022/02/17 03:42:25;;;;;;;2.05;0.85;;;;;;;10.46;80.01;95995.78;4170072;28;20047;-71
2022/02/17 03:44:25;;;;;;;1.95;0.60;;;;;;;10.47;79.33;96019.44;4170119;28;20289;-71
2022/02/17 03:46:26;;;;;;;2.17;0.70;;;;;;;10.50;78.64;95996.44;4170359;28;20544;-71
2022/02/17 03:48:26;;;;;;;1.38;0.73;;;;;;;10.53;77.77;96001.09;4169371;28;20144;-72
2022/02/17 03:50:26;;;;;;;1.20;0.60;;;;;;;10.50;77.74;95977.09;4170291;28;20477;-72
2022/02/17 03:52:28;;;;;;;3.15;1.60;;;;;;;10.54;76.07;95997.13;4170636;28;20446;-72
2022/02/17 03:54:28;;;;;;;1.73;0.60;;;;;;;10.57;76.11;95987.16;4169530;28;20401;-71
2022/02/17 03:56:29;;;;;;;0.88;0.60;;;;;;;10.49;76.64;96025.31;4169720;28;20445;-72
2022/02/17 04:00:48;;;;;;;1.45;0.60;;;;;;;10.50;73.69;96031.59;4169806;28;20048;-72
2022/02/17 04:02:48;;;;;;;1.65;1.00;;;;;;;10.47;73.84;96046.31;4169844;28;20041;-71
2022/02/17 04:04:49;;;;;;;1.63;0.70;;;;;;;10.46;73.46;96053.81;4169265;28;20441;-71
2022/02/17 04:06:49;;;;;;;3.03;0.90;;;;;;;10.50;73.33;96062.78;4167757;28;20460;-71
2022/02/17 04:08:50;;;;;;;1.92;0.75;;;;;;;10.51;72.96;96071.84;4168730;28;20080;-72
2022/02/17 04:10:50;;;;;;;2.78;1.13;;;;;;;10.46;73.24;96072.41;4168881;28;20158;-71
2022/02/17 04:12:51;;;;;;;2.00;0.90;;;;;;;10.43;72.85;96090.66;4170250;28;20111;-72
2022/02/17 04:14:51;;;;;;;4.30;0.80;;;;;;;10.38;72.48;96093.94;4169846;28;20045;-72
2022/02/17 04:16:51;;;;;;;2.65;0.88;;;;;;;10.42;72.26;96144.34;4168776;28;20097;-71
2022/02/17 04:18:52;;;;;;;1.63;0.80;;;;;;;10.44;71.45;96089.44;4169979;28;20121;-72
2022/02/17 04:20:52;;;;;;;2.75;0.80;;;;;;;10.44;71.14;96119.06;4169468;28;20147;-71
2022/02/17 04:22:52;;;;;;;4.03;0.90;;;;;;;10.41;70.44;96145.56;4169919;28;20037;-71
2022/02/17 04:24:52;;;;;;;2.63;0.82;;;;;;;10.39;72.06;96136.94;4169585;28;20045;-72
2022/02/17 04:26:53;;;;;;;2.75;2.05;;;;;;;10.38;72.44;96157.50;4168687;28;20045;-72
2022/02/17 04:28:55;;;;;;;2.58;1.00;;;;;;;10.35;72.66;96166.66;4169687;28;20523;-71
2022/02/17 04:30:55;;;;;;;0.70;0.70;;;;;;;10.20;73.66;96168.19;4168280;28;20625;-72
2022/02/17 04:33:00;;;;;;;2.08;0.90;;;;;;;10.18;73.69;96223.88;4168684;28;20131;-71
2022/02/17 04:35:00;;;;;;;2.20;0.90;;;;;;;10.05;75.91;96218.25;4169346;28;20045;-71
2022/02/17 04:37:01;;;;;;;4.05;1.17;;;;;;;9.80;77.73;96234.59;4167958;28;20627;-71
2022/02/17 04:39:02;;;;;;;3.65;1.10;;;;;;;9.47;81.41;96258.53;4168990;28;20049;-71
2022/02/17 04:43:21;;;;;;;5.57;1.20;;;;;;;8.47;85.93;96342.19;4169596;28;20307;-71
2022/02/17 04:45:22;;;;;;;3.40;0.90;;;;;;;7.98;86.71;96319.59;4172698;28;20045;-71
2022/02/17 04:47:22;;;;;;;4.20;1.35;;;;;;;7.84;87.92;96258.00;4172379;28;20599;-71
2022/02/17 04:49:23;;;;;;;4.43;1.25;;;;;;;7.76;89.00;96244.75;4172670;28;20502;-71
2022/02/17 04:51:23;;;;;;;3.13;1.10;;;;;;;7.83;88.33;96258.44;4172455;28;20037;-71
2022/02/17 04:53:24;;;;;;;6.60;2.53;;;;;;;7.78;89.63;96278.97;4172639;28;20051;-71
2022/02/17 04:55:25;;;;;;;5.15;1.55;;;;;;;8.01;84.25;96280.22;4170995;28;20037;-71
2022/02/17 04:57:25;;;;;;;4.13;1.00;;;;;;;8.10;84.84;96280.47;4169553;28;20057;-71
2022/02/17 04:59:26;;;;;;;8.05;1.38;;;;;;;8.24;83.42;96287.78;4171186;28;20069;-71
2022/02/17 05:01:26;;;;;;;4.50;1.17;;;;;;;8.40;81.14;96307.25;4171504;28;20051;-71
2022/02/17 05:03:27;;;;;;;3.88;1.20;;;;;;;8.47;80.80;96369.75;4171271;28;20049;-71
2022/02/17 05:05:27;;;;;;;3.92;1.10;;;;;;;8.41;81.83;96352.88;4171293;28;20174;-71
2022/02/17 05:07:28;;;;;;;1.35;0.82;;;;;;;7.42;81.93;96427.16;4170653;28;20051;-71
2022/02/17 05:09:28;;;;;;;5.13;1.13;;;;;;;6.66;89.56;96428.91;4171425;28;20041;-71
2022/02/17 05:11:28;;;;;;;2.67;0.90;;;;;;;6.33;92.70;96445.97;4171572;28;20060;-71
2022/02/17 05:13:29;;;;;;;3.75;1.10;;;;;;;5.83;94.46;96413.16;4171560;28;20461;-71
2022/02/17 05:15:29;;;;;;;4.35;1.23;;;;;;;5.46;99.61;96433.66;4171431;28;20519;-71
2022/02/17 05:17:29;;;;;;;2.15;1.10;;;;;;;5.36;98.13;96396.03;4169886;28;20490;-71
2022/02/17 05:19:30;;;;;;;3.20;1.10;;;;;;;5.49;95.39;96367.03;4171668;28;20489;-72
2022/02/17 05:21:30;;;;;;;2.13;0.95;;;;;;;5.62;93.95;96348.16;4170369;28;20139;-71
2022/02/17 05:23:30;;;;;;;3.22;0.82;;;;;;;5.94;86.51;96356.28;4171309;28;20049;-71
2022/02/17 05:25:31;;;;;;;1.73;1.02;;;;;;;5.96;88.66;96383.34;4170114;28;20118;-71
2022/02/17 05:27:31;;;;;;;4.03;1.05;;;;;;;5.96;86.12;96342.16;4168712;28;20369;-71
2022/02/17 05:29:32;;;;;;;3.42;1.15;;;;;;;6.05;83.64;96373.53;4171192;28;20076;-71
2022/02/17 05:31:32;;;;;;;2.83;1.05;;;;;;;6.25;81.48;96379.28;4171234;28;20045;-71
2022/02/17 05:33:33;;;;;;;3.38;1.35;;;;;;;6.57;80.24;96394.81;4169513;28;20060;-71
2022/02/17 05:35:33;;;;;;;4.53;1.15;;;;;;;6.64;78.44;96401.06;4169955;28;20504;-71
2022/02/17 05:37:34;;;;;;;4.78;1.40;;;;;;;6.58;80.16;96416.41;4170194;28;20459;-71
2022/02/17 05:39:35;;;;;;;3.10;1.75;;;;;;;6.53;79.38;96416.81;4171192;28;20742;-72
2022/02/17 05:41:35;;;;;;;5.25;1.20;;;;;;;6.46;81.97;96416.88;4169797;28;20063;-71
2022/02/17 05:43:36;;;;;;;3.50;1.30;;;;;;;6.49;81.63;96427.03;4171563;28;20136;-71
2022/02/17 05:45:36;;;;;;;2.05;1.20;;;;;;;6.45;81.79;96438.06;4171257;28;20080;-71
2022/02/17 05:47:36;;;;;;;6.38;1.52;;;;;;;6.54;81.40;96451.38;4171016;28;20063;-71
2022/02/17 05:49:37;;;;;;;3.83;1.40;;;;;;;6.50;82.71;96445.09;4171494;28;20051;-71
2022/02/17 05:51:37;;;;;;;3.10;1.90;;;;;;;6.51;83.02;96443.91;4171338;28;20091;-71
2022/02/17 05:53:37;;;;;;;4.30;1.33;;;;;;;6.65;82.45;96448.53;4171197;28;20072;-71
2022/02/17 05:55:38;;;;;;;4.90;1.38;;;;;;;6.79;80.58;96448.47;4106499;28;20447;-71
2022/02/17 05:57:38;;;;;;;3.78;1.88;;;;;;;6.81;81.49;96459.84;4168621;28;20133;-71
2022/02/17 05:59:39;;;;;;;5.43;1.95;;;;;;;6.75;82.72;96466.94;4172222;28;20045;-71
2022/02/17 06:01:39;;;;;;;6.65;2.35;;;;;;;6.82;82.60;96455.13;4170190;28;20056;-71
2022/02/17 06:03:40;;;;;;;5.10;1.83;;;;;;;6.83;82.23;96451.19;4169974;28;20413;-72
2022/02/17 06:05:40;;;;;;;3.92;1.77;;;;;;;6.82;82.93;96453.16;4170725;28;20041;-71
2022/02/17 06:07:40;;;;;;;7.50;1.60;;;;;;;6.75;83.14;96456.72;4170215;28;20127;-71
2022/02/17 06:09:43;;;;;;;3.55;1.45;;;;;;;6.83;82.96;96476.69;4171211;28;20048;-71
2022/02/17 06:11:43;;;;;;;4.70;1.60;;;;;;;6.91;83.10;96471.94;4169906;28;20131;-71
2022/02/17 06:13:44;;;;;;;7.45;1.88;;;;;;;7.05;81.44;96480.13;4171501;28;20493;-71
2022/02/17 06:15:44;;;;;;;5.82;1.60;;;;;;;7.08;81.70;96484.00;4172023;28;20075;-71
2022/02/17 06:17:45;;;;;;;5.82;1.70;;;;;;;7.02;82.91;96472.66;4171473;28;20041;-71
2022/02/17 06:19:45;;;;;;;5.47;2.00;;;;;;;7.06;82.34;96476.19;4170524;28;20040;-71
2022/02/17 06:21:46;;;;;;;7.68;1.83;;;;;;;7.02;82.87;96498.19;4171417;28;20053;-71
2022/02/17 06:23:46;;;;;;;6.63;1.95;;;;;;;6.98;84.55;96518.66;4171403;28;20075;-71
2022/02/17 06:25:46;;;;;;;7.85;1.63;;;;;;;6.95;84.67;96527.69;4171242;28;20080;-71
2022/02/17 06:27:48;;;;;;;5.32;1.95;;;;;;;6.88;87.65;96536.78;4170507;28;20523;-71
2022/02/17 06:29:49;;;;;;;5.93;1.63;;;;;;;6.71;88.69;96548.63;4171673;28;20055;-71
2022/02/17 06:31:49;;;;;;;8.23;2.03;;;;;;;6.70;88.07;96553.34;4170680;28;20050;-71
2022/02/17 06:33:49;;;;;;;7.28;1.83;;;;;;;6.67;88.83;96548.63;4171477;28;20294;-71
2022/02/17 06:35:50;;;;;;;8.25;1.90;;;;;;;6.68;87.65;96547.44;4170959;28;20447;-71
2022/02/17 06:37:52;;;;;;;7.32;2.13;;;;;;;6.75;85.48;96563.91;4170179;28;20055;-71
2022/02/17 06:39:52;;;;;;;10.55;2.35;;;;;;;6.79;85.09;96554.88;4171022;28;20159;-71
2022/02/17 06:41:52;;;;;;;6.93;1.60;;;;;;;6.86;84.23;96568.56;4171050;28;20045;-71
2022/02/17 06:43:53;;;;;;;9.48;1.60;;;;;;;6.82;84.17;96582.34;4170840;28;20720;-71
2022/02/17 06:45:53;;;;;;;8.25;1.85;;;;;;;6.55;86.42;96595.00;4170714;28;20142;-71
2022/02/17 06:47:55;;;;;;;4.60;1.30;;;;;;;6.09;88.25;96620.59;4170051;28;20912;-71
2022/02/17 06:49:55;;;;;;;3.08;1.10;;;;;;;5.75;91.42;96606.44;4171150;28;20072;-71
2022/02/17 06:51:56;;;;;;;4.45;1.50;;;;;;;5.45;94.90;96620.50;4170735;28;20041;-71
2022/02/17 06:53:57;;;;;;;5.20;1.52;;;;;;;5.32;93.45;96636.56;4170516;28;20052;-71
2022/02/17 06:55:57;;;;;;;5.43;2.13;;;;;;;5.16;96.21;96623.22;4170756;28;20049;-71
2022/02/17 06:57:57;;;;;;;6.75;2.15;;;;;;;5.12;96.64;96669.00;4169779;28;20045;-71
2022/02/17 07:00:02;;;;;;;7.15;2.10;;;;;;;5.03;96.62;96663.88;4170606;28;20098;-71
2022/02/17 07:02:03;;;;;;;3.10;1.90;;;;;;;5.02;97.38;96645.88;4170160;28;20102;-71
2022/02/17 07:04:03;;;;;;;5.28;2.33;;;;;;;4.96;98.02;96650.13;4170575;28;20492;-72
2022/02/17 07:06:04;;;;;;;5.43;2.00;;;;;;;4.96;97.53;96674.81;4169671;28;20032;-71
2022/02/17 07:08:04;;;;;;;6.55;2.60;;;;;;;5.00;96.42;96674.84;4169904;28;20106;-71
2022/02/17 07:10:07;;;;;;;8.40;3.10;;;;;;;5.07;96.10;96664.69;4170721;28;20114;-71
2022/02/17 07:12:08;;;;;;;7.70;2.60;;;;;;;5.03;98.21;96677.59;4168969;28;20086;-71
2022/02/17 07:14:10;;;;;;;7.53;3.17;;;;;;;5.06;96.94;96665.09;4170528;28;20035;-71
2022/02/17 07:16:10;;;;;;;8.77;3.40;;;;;;;5.06;97.80;96668.59;4169172;28;20100;-71
2022/02/17 07:18:10;;;;;;;11.50;4.25;;;;;;;5.07;97.58;96683.09;4169785;28;20060;-71
2022/02/17 07:20:11;;;;;;;5.72;2.17;;;;;;;5.07;99.32;96691.31;4170594;28;20115;-71
2022/02/17 07:22:11;;;;;;;4.60;2.30;;;;;;;5.07;97.64;96692.09;4170547;28;20098;-71
2022/02/17 07:24:12;;;;;;;5.88;2.72;;;;;;;5.12;98.30;96703.84;4170608;28;20276;-71
2022/02/17 07:26:12;;;;;;;9.75;4.28;;;;;;;5.17;98.09;96700.75;4170452;28;20128;-71
2022/02/17 07:28:14;;;;;;;7.53;2.50;;;;;;;5.17;96.31;96706.22;4169650;28;20025;-71
2022/02/17 07:30:14;;;;;;;9.15;3.50;;;;;;;5.19;97.18;96710.16;4169994;28;20033;-71
2022/02/17 07:32:15;;;;;;;7.35;3.67;;;;;;;5.24;96.71;96711.75;4170199;28;20099;-71
2022/02/17 07:34:16;;;;;;;6.45;2.88;;;;;;;5.32;95.24;96724.31;4169983;28;20029;-71
2022/02/17 07:36:17;;;;;;;7.55;3.03;;;;;;;5.29;95.35;96725.84;4170215;28;20091;-71
2022/02/17 07:38:17;;;;;;;4.32;2.35;;;;;;;5.28;95.94;96723.50;4169675;28;20464;-71
2022/02/17 07:40:18;;;;;;;5.80;2.50;;;;;;;5.33;95.81;96718.44;4169847;28;20086;-71
2022/02/17 07:42:18;;;;;;;6.43;2.83;;;;;;;5.35;96.32;96713.34;4169754;28;20032;-71
2022/02/17 07:44:24;;;;;;;4.80;2.28;;;;;;;5.43;94.03;96732.59;4170071;28;20040;-71
2022/02/17 07:46:25;;;;;;;4.95;1.70;;;;;;;5.46;93.99;96734.53;4170013;28;20048;-71
2022/02/17 07:48:25;;;;;;;4.78;1.98;;;;;;;5.51;94.40;96743.19;4169129;28;20734;-71
2022/02/17 07:50:27;;;;;;;3.53;1.77;;;;;;;5.59;90.33;96733.81;4169891;28;20279;-71
2022/02/17 07:52:27;;;;;;;6.03;2.28;;;;;;;5.72;89.38;96752.69;4169950;28;20041;-71
2022/02/17 07:54:27;;;;;;;8.82;2.50;;;;;;;5.68;90.87;96758.13;4170397;28;20735;-71
2022/02/17 07:56:28;;;;;;;5.57;2.05;;;;;;;5.64;92.98;96780.09;4169714;28;20052;-71
2022/02/17 07:58:28;;;;;;;10.40;2.70;;;;;;;5.64;95.02;96762.84;4169313;28;20496;-71
2022/02/17 08:00:28;;;;;;;8.05;3.10;;;;;;;5.42;96.22;96759.22;4170066;28;20041;-71
2022/02/17 08:02:29;;;;;;;6.40;1.67;;;;;;;5.36;96.98;96761.53;4169467;28;20130;-71
2022/02/17 08:04:30;;;;;;;4.97;2.25;;;;;;;5.52;94.51;96752.97;4169879;28;20404;-71
2022/02/17 08:06:31;;;;;;;4.20;1.48;;;;;;;5.60;90.98;96751.84;4169335;28;20477;-71
2022/02/17 08:08:31;;;;;;;6.57;1.92;;;;;;;5.78;85.54;96759.34;4170022;28;20063;-71
2022/02/17 08:10:32;;;;;;;4.03;1.98;;;;;;;5.93;83.86;96758.22;4170005;28;20164;-71
2022/02/17 08:12:32;;;;;;;8.43;1.77;;;;;;;6.07;82.97;96772.00;4169526;28;20140;-71
2022/02/17 08:14:32;;;;;;;5.97;2.03;;;;;;;6.11;81.89;96759.03;4170102;28;20507;-71
2022/02/17 08:16:33;;;;;;;4.35;2.50;;;;;;;6.11;82.02;96761.78;4168884;28;20477;-71
2022/02/17 08:18:33;;;;;;;8.05;1.73;;;;;;;6.15;81.22;96761.81;4169428;28;20517;-71
2022/02/17 08:20:33;;;;;;;7.28;1.60;;;;;;;6.19;80.15;96776.31;4170077;28;20045;-71
2022/02/17 08:22:34;;;;;;;8.13;1.40;;;;;;;6.28;78.62;96797.91;4169696;28;20794;-71
2022/02/17 08:24:34;;;;;;;4.82;1.75;;;;;;;6.23;78.22;96799.09;4169626;28;20433;-71
2022/02/17 08:26:35;;;;;;;6.00;1.60;;;;;;;6.09;78.97;96802.59;4169060;28;20106;-71
2022/02/17 08:28:35;;;;;;;2.50;1.00;;;;;;;6.08;79.52;96802.97;4169884;28;20048;-71
2022/02/17 08:30:36;;;;;;;3.78;1.27;;;;;;;5.92;81.81;96803.31;4167824;28;20061;-71
2022/02/17 08:32:37;;;;;;;3.10;1.25;;;;;;;5.86;83.11;96802.88;4169631;28;20053;-72
2022/02/17 08:34:37;;;;;;;4.43;1.27;;;;;;;5.93;82.76;96813.13;4169912;28;20481;-71
2022/02/17 08:36:38;;;;;;;5.45;2.85;;;;;;;6.03;81.73;96793.16;4168937;28;20052;-71
2022/02/17 08:38:38;;;;;;;4.20;1.33;;;;;;;6.14;81.40;96799.47;4169227;28;20041;-71
2022/02/17 08:40:38;;;;;;;5.22;1.58;;;;;;;6.27;80.73;96815.56;4169817;28;20045;-71
2022/02/17 08:42:39;;;;;;;5.50;1.83;;;;;;;6.34;81.31;96815.56;4169270;28;20257;-71
2022/02/17 08:44:40;;;;;;;8.40;1.50;;;;;;;6.42;79.88;96812.44;4168842;28;20099;-71
2022/02/17 08:46:40;;;;;;;2.88;1.50;;;;;;;6.51;79.29;96814.81;4168834;28;20041;-71
2022/02/17 08:48:41;;;;;;;6.82;1.90;;;;;;;6.50;78.57;96817.94;4169704;28;20401;-71
2022/02/17 08:50:43;;;;;;;4.93;1.70;;;;;;;6.53;77.76;96811.66;4169546;28;20049;-71
2022/02/17 08:52:43;;;;;;;6.47;1.85;;;;;;;6.47;79.04;96842.28;4169528;28;20431;-71
2022/02/17 08:54:43;;;;;;;6.28;2.05;;;;;;;6.36;79.20;96870.91;4169632;28;20052;-71
2022/02/17 08:56:44;;;;;;;4.47;1.65;;;;;;;6.05;82.60;96995.97;4168510;28;20056;-71
2022/02/17 08:58:44;;;;;;;3.05;1.10;;;;;;;3.05;92.67;97039.00;4169571;28;20037;-71
2022/02/17 09:00:44;;;;;;;1.20;0.85;;;;;;;2.63;100.00;97008.19;4169297;28;20549;-72
2022/02/17 09:02:45;;;;;;;3.15;1.00;;;;;;;2.61;100.00;97024.16;4169523;28;20052;-72
2022/02/17 09:04:45;;;;;;;2.25;1.17;;;;;;;2.59;98.94;97027.25;4169262;28;20346;-72
2022/02/17 09:06:50;;;;;;;3.22;0.73;;;;;;;2.53;98.96;97036.88;4168419;28;20045;-72
2022/02/17 09:08:50;;;;;;;1.25;0.80;;;;;;;2.50;99.39;97045.78;4169441;28;20056;-72
2022/02/17 09:10:51;;;;;;;0.68;0.68;;;;;;;2.45;100.00;97035.16;4169515;28;20053;-72
2022/02/17 09:12:51;;;;;;;0.70;0.60;;;;;;;2.39;100.00;97058.41;4169277;28;20063;-72
2022/02/17 09:14:51;;;;;;;0.70;0.68;;;;;;;2.37;100.00;97045.13;4168651;28;20095;-72
2022/02/17 09:16:53;;;;;;;0.60;0.60;;;;;;;2.29;100.00;97078.09;4168948;28;20517;-73
2022/02/17 09:18:53;;;;;;;2.00;0.60;;;;;;;2.16;100.00;97037.31;4168966;28;20077;-73
2022/02/17 09:20:53;;;;;;;1.13;0.70;;;;;;;2.10;100.00;97032.50;4169303;28;20469;-73
2022/02/17 09:22:54;;;;;;;2.67;0.80;;;;;;;2.18;100.00;97048.66;4169465;28;20077;-73
2022/02/17 09:24:54;;;;;;;0.60;0.57;;;;;;;2.31;100.00;97051.22;4168869;28;20053;-72
2022/02/17 09:26:54;;;;;;;1.25;0.70;;;;;;;2.38;100.00;97052.16;4168299;28;20044;-72
2022/02/17 09:28:56;;;;;;;1.77;1.25;;;;;;;2.50;100.00;97062.97;4169034;28;20296;-72
2022/02/17 09:30:57;;;;;;;3.43;1.50;;;;;;;2.60;100.00;97069.78;4172316;28;20061;-72
2022/02/17 09:32:57;;;;;;;3.55;1.20;;;;;;;2.73;100.00;97082.16;4172005;28;20037;-73
2022/02/17 09:34:58;;;;;;;2.88;0.90;;;;;;;2.73;100.00;97045.81;4172094;28;20037;-73